createdAt,value
2018-09-06T00:04:31.339Z,99.60
2018-09-06T00:09:35.497Z,99.60
2018-09-06T00:14:39.509Z,99.60
2018-09-06T00:19:43.637Z,99.60
2018-09-06T00:24:47.660Z,99.60
2018-09-06T00:29:52.257Z,99.60
2018-09-06T00:34:56.407Z,99.60
2018-09-06T00:40:00.537Z,99.60
2018-09-06T00:45:05.068Z,99.60
2018-09-06T00:50:16.160Z,99.60
2018-09-06T00:55:20.824Z,99.60
2018-09-06T01:00:24.955Z,99.60
2018-09-06T01:05:29.680Z,99.60
2018-09-06T01:10:33.819Z,99.60
2018-09-06T01:15:37.898Z,99.60
2018-09-06T01:20:42.019Z,99.60
2018-09-06T01:25:48.457Z,99.60
2018-09-06T01:30:52.556Z,99.60
2018-09-06T01:36:02.098Z,99.60
2018-09-06T01:41:06.360Z,99.60
2018-09-06T01:46:10.435Z,99.60
2018-09-06T01:51:14.613Z,99.60
2018-09-06T01:56:18.702Z,99.60
2018-09-06T02:01:22.833Z,99.60
2018-09-06T02:06:27.275Z,99.60
2018-09-06T02:11:31.453Z,99.60
2018-09-06T02:16:35.929Z,99.60
2018-09-06T02:21:40.127Z,99.60
2018-09-06T02:26:44.275Z,99.60
2018-09-06T02:31:48.497Z,99.60
2018-09-06T02:36:53.123Z,99.60
2018-09-06T02:41:57.674Z,99.60
2018-09-06T02:47:01.917Z,99.60
2018-09-06T02:52:06.697Z,99.60
2018-09-06T02:57:11.538Z,99.60
2018-09-06T03:02:15.594Z,99.60
2018-09-06T03:07:19.776Z,99.60
2018-09-06T03:12:24.032Z,99.60
2018-09-06T03:17:28.191Z,99.60
2018-09-06T03:22:32.212Z,99.60
2018-09-06T03:27:36.668Z,99.60
2018-09-06T03:32:40.793Z,99.60
2018-09-06T03:37:44.864Z,99.60
2018-09-06T03:42:48.983Z,99.60
2018-09-06T03:47:53.111Z,99.60
2018-09-06T03:52:57.241Z,99.60
2018-09-06T03:58:02.407Z,99.60
2018-09-06T04:03:06.807Z,99.60
2018-09-06T04:08:10.894Z,99.60
2018-09-06T04:13:15.051Z,99.60
2018-09-06T04:18:19.245Z,99.60
2018-09-06T04:23:23.428Z,99.60
2018-09-06T04:28:27.737Z,99.60
2018-09-06T04:33:31.937Z,99.60
2018-09-06T04:38:36.179Z,99.60
2018-09-06T04:43:40.402Z,99.60
2018-09-06T04:48:45.621Z,99.60
2018-09-06T04:53:49.747Z,99.60
2018-09-06T04:58:54.041Z,99.60
2018-09-06T05:03:58.211Z,99.60
2018-09-06T05:09:03.616Z,99.60
2018-09-06T05:14:07.700Z,99.60
2018-09-06T05:19:12.880Z,99.60
2018-09-06T05:24:17.110Z,99.60
2018-09-06T05:29:21.782Z,99.60
2018-09-06T05:34:25.933Z,99.60
2018-09-06T05:39:30.165Z,99.60
2018-09-06T05:44:34.419Z,99.60
2018-09-06T05:49:38.561Z,99.60
2018-09-06T05:54:42.938Z,99.60
2018-09-06T05:59:47.040Z,99.60
2018-09-06T06:04:51.149Z,99.60
2018-09-06T06:09:55.232Z,99.60
2018-09-06T06:14:59.428Z,99.60
2018-09-06T06:20:03.735Z,99.60
2018-09-06T06:25:07.859Z,99.60
2018-09-06T06:30:11.884Z,99.60
2018-09-06T06:35:15.975Z,99.60
2018-09-06T06:40:20.771Z,99.60
2018-09-06T06:45:24.878Z,99.60
2018-09-06T06:50:29.193Z,99.60
2018-09-06T06:55:34.129Z,99.60
2018-09-06T07:00:43.186Z,99.60
2018-09-06T07:05:47.335Z,99.60
2018-09-06T07:10:51.467Z,99.60
2018-09-06T07:15:55.635Z,99.60
2018-09-06T07:20:59.991Z,99.60
2018-09-06T07:26:04.117Z,99.60
2018-09-06T07:31:08.351Z,99.60
2018-09-06T07:36:12.376Z,99.60
2018-09-06T07:41:16.599Z,99.60
2018-09-06T07:46:20.715Z,99.60
2018-09-06T07:51:25.951Z,99.60
2018-09-06T07:56:30.195Z,99.60
2018-09-06T08:01:35.215Z,99.60
2018-09-06T08:06:39.518Z,99.60
2018-09-06T08:11:43.865Z,99.60
2018-09-06T08:16:47.941Z,99.60
2018-09-06T08:21:51.968Z,99.60
2018-09-06T08:26:56.148Z,99.60
2018-09-06T08:32:00.316Z,99.60
2018-09-06T08:37:05.005Z,99.60
2018-09-06T08:42:09.199Z,99.60
2018-09-06T08:47:13.408Z,99.60
2018-09-06T08:52:17.514Z,99.60
2018-09-06T08:57:22.712Z,99.60
2018-09-06T09:02:27.920Z,99.60
2018-09-06T09:07:32.022Z,99.60
2018-09-06T09:12:36.019Z,99.60
2018-09-06T09:17:40.167Z,99.60
2018-09-06T09:22:44.400Z,99.60
2018-09-06T09:27:49.249Z,99.10
2018-09-06T09:32:53.395Z,97.20
2018-09-06T09:37:57.614Z,99.10
2018-09-06T09:43:01.797Z,98.80
2018-09-06T09:48:06.107Z,98.50
2018-09-06T09:53:10.320Z,95.70
2018-09-06T09:58:14.443Z,96.60
2018-09-06T10:03:24.095Z,96.60
2018-09-06T10:08:34.560Z,97.30
2018-09-06T10:13:47.487Z,96.00
2018-09-06T10:18:51.603Z,95.50
2018-09-06T10:23:55.772Z,93.70
2018-09-06T10:28:59.876Z,94.00
2018-09-06T10:34:04.280Z,92.80
2018-09-06T10:39:09.985Z,92.80
2018-09-06T10:44:14.116Z,91.90
2018-09-06T10:49:18.285Z,90.20
2018-09-06T10:54:22.447Z,89.70
2018-09-06T10:59:26.794Z,88.20
2018-09-06T11:04:31.022Z,87.90
2018-09-06T11:09:35.174Z,88.90
2018-09-06T11:14:39.293Z,86.90
2018-09-06T11:19:43.660Z,83.20
2018-09-06T11:24:48.160Z,79.10
2018-09-06T11:29:52.177Z,75.10
2018-09-06T11:34:56.315Z,71.70
2018-09-06T11:40:01.381Z,69.80
2018-09-06T11:45:05.770Z,70.80
2018-09-06T11:50:09.915Z,69.10
2018-09-06T11:55:14.117Z,67.60
2018-09-06T12:00:18.447Z,71.10
2018-09-06T12:05:22.601Z,73.70
2018-09-06T12:10:26.750Z,73.50
2018-09-06T12:15:31.011Z,72.60
2018-09-06T12:20:35.105Z,69.90
2018-09-06T12:25:39.243Z,71.00
2018-09-06T12:30:43.428Z,69.00
2018-09-06T12:35:47.639Z,67.50
2018-09-06T12:40:51.819Z,68.20
2018-09-06T12:45:55.967Z,68.60
2018-09-06T12:51:00.191Z,72.00
2018-09-06T12:56:05.184Z,72.10
2018-09-06T13:01:11.971Z,72.90
2018-09-06T13:06:16.180Z,71.80
2018-09-06T13:11:20.315Z,73.50
2018-09-06T13:16:24.422Z,76.10
2018-09-06T13:21:28.592Z,79.60
2018-09-06T13:26:32.706Z,82.80
2018-09-06T13:31:36.975Z,83.70
2018-09-06T13:36:41.124Z,85.40
2018-09-06T13:41:45.231Z,86.80
2018-09-06T13:46:49.354Z,85.70
2018-09-06T13:51:53.577Z,85.20
2018-09-06T13:56:57.643Z,87.70
2018-09-06T14:02:01.798Z,90.40
2018-09-06T14:07:06.356Z,90.80
2018-09-06T14:12:11.232Z,91.70
2018-09-06T14:17:15.462Z,87.20
2018-09-06T14:22:19.970Z,85.40
2018-09-06T14:27:24.157Z,86.10
2018-09-06T14:32:29.163Z,84.60
2018-09-06T14:37:33.392Z,86.30
2018-09-06T14:42:38.442Z,84.80
2018-09-06T14:47:42.581Z,84.30
2018-09-06T14:52:46.882Z,84.00
2018-09-06T14:57:51.040Z,83.70
2018-09-06T15:02:55.185Z,82.80
2018-09-06T15:07:59.362Z,80.20
2018-09-06T15:13:04.932Z,79.60
2018-09-06T15:18:09.142Z,79.30
2018-09-06T15:23:13.280Z,79.30
2018-09-06T15:28:18.154Z,77.70
2018-09-06T15:33:22.276Z,79.10
2018-09-06T15:38:26.730Z,81.90
2018-09-06T15:43:30.825Z,81.40
2018-09-06T15:48:34.972Z,81.90
2018-09-06T15:53:39.229Z,82.60
2018-09-06T15:58:43.401Z,84.60
2018-09-06T16:03:48.141Z,84.70
2018-09-06T16:08:52.157Z,86.70
2018-09-06T16:13:56.971Z,86.30
2018-09-06T16:19:01.241Z,86.90
2018-09-06T16:24:06.054Z,87.60
2018-09-06T16:29:10.980Z,87.90
2018-09-06T16:34:15.761Z,88.80
2018-09-06T16:39:20.445Z,89.60
2018-09-06T16:44:24.584Z,89.00
2018-09-06T16:49:28.607Z,89.30
2018-09-06T16:54:32.821Z,88.90
2018-09-06T16:59:36.929Z,88.70
2018-09-06T17:04:41.210Z,88.60
2018-09-06T17:09:45.908Z,88.70
2018-09-06T17:14:50.098Z,89.10
2018-09-06T17:19:54.214Z,89.40
2018-09-06T17:24:58.888Z,90.20
2018-09-06T17:30:04.031Z,90.90
2018-09-06T17:35:08.133Z,91.60
2018-09-06T17:40:12.822Z,93.10
2018-09-06T17:45:17.017Z,93.10
2018-09-06T17:50:21.235Z,91.00
2018-09-06T17:55:25.357Z,90.80
2018-09-06T18:00:29.449Z,91.80
2018-09-06T18:05:33.618Z,92.20
2018-09-06T18:10:38.185Z,97.70
2018-09-06T18:15:42.369Z,99.60
2018-09-06T18:20:46.438Z,99.60
2018-09-06T18:25:50.590Z,99.60
2018-09-06T18:30:55.441Z,99.60
2018-09-06T18:35:59.971Z,99.60
2018-09-06T18:41:04.117Z,99.60
2018-09-06T18:46:08.431Z,99.60
2018-09-06T18:51:12.852Z,99.60
2018-09-06T18:56:16.983Z,99.60
2018-09-06T19:01:21.315Z,99.60
2018-09-06T19:06:25.451Z,99.60
2018-09-06T19:11:29.586Z,99.60
2018-09-06T19:16:33.743Z,99.60
2018-09-06T19:21:37.829Z,99.60
2018-09-06T19:26:41.913Z,99.60
2018-09-06T19:31:46.172Z,99.60
2018-09-06T19:38:14.733Z,99.60
2018-09-06T19:43:18.961Z,99.60
2018-09-06T19:48:23.714Z,99.60
2018-09-06T19:53:27.928Z,99.60
2018-09-06T19:58:32.001Z,99.60
2018-09-06T20:03:36.121Z,99.60
2018-09-06T20:08:40.160Z,99.60
2018-09-06T20:13:44.839Z,99.60
2018-09-06T20:18:48.968Z,99.60
2018-09-06T20:23:54.390Z,99.60
2018-09-06T20:28:58.597Z,99.60
2018-09-06T20:34:03.115Z,99.60
2018-09-06T20:39:08.467Z,99.60
2018-09-06T20:44:12.558Z,99.60
2018-09-06T20:49:16.849Z,99.60
2018-09-06T20:54:21.025Z,99.60
2018-09-06T20:59:25.949Z,99.60
2018-09-06T21:04:30.019Z,99.60
2018-09-06T21:09:34.148Z,99.60
2018-09-06T21:14:38.274Z,99.60
2018-09-06T21:19:42.365Z,99.60
2018-09-06T21:24:46.523Z,99.60
2018-09-06T21:29:50.685Z,99.60
2018-09-06T21:34:54.809Z,99.60
2018-09-06T21:39:58.911Z,99.60
2018-09-06T21:45:02.961Z,99.60
2018-09-06T21:50:07.323Z,99.60
2018-09-06T21:55:11.441Z,99.60
2018-09-06T22:00:15.565Z,99.60
2018-09-06T22:05:20.507Z,99.60
2018-09-06T22:10:25.348Z,99.60
2018-09-06T22:15:29.909Z,99.60
2018-09-06T22:20:33.977Z,99.60
2018-09-06T22:25:38.153Z,99.60
2018-09-06T22:30:42.956Z,99.60
2018-09-06T22:35:47.960Z,99.60
2018-09-06T22:40:52.842Z,99.60
2018-09-06T22:45:57.115Z,99.60
2018-09-06T22:51:01.982Z,99.60
2018-09-06T22:56:06.214Z,99.60
2018-09-06T23:01:10.391Z,99.60
2018-09-06T23:06:14.442Z,99.60
2018-09-06T23:11:18.587Z,99.60
2018-09-06T23:16:22.916Z,99.60
2018-09-06T23:21:26.990Z,99.60
2018-09-06T23:26:31.130Z,99.60
2018-09-06T23:31:35.279Z,99.60
2018-09-06T23:36:39.366Z,99.60
2018-09-06T23:41:43.400Z,99.60
2018-09-06T23:46:47.522Z,99.60
2018-09-06T23:51:51.637Z,99.60
2018-09-06T23:56:55.713Z,99.60
